createdAt,value
2022-08-21T00:03:12.595Z,22.49
2022-08-21T00:07:14.704Z,22.48
2022-08-21T00:11:16.294Z,22.46
2022-08-21T00:15:23.137Z,22.41
2022-08-21T00:19:25.798Z,22.36
2022-08-21T00:23:27.416Z,22.31
2022-08-21T00:27:29.115Z,22.23
2022-08-21T00:31:30.890Z,22.12
2022-08-21T00:35:36.200Z,22.11
2022-08-21T00:39:37.846Z,22.06
2022-08-21T00:43:40.323Z,22.02
2022-08-21T00:47:42.196Z,21.99
2022-08-21T00:51:54.511Z,21.96
2022-08-21T00:55:57.017Z,21.90
2022-08-21T01:00:02.238Z,21.81
2022-08-21T01:04:03.870Z,21.74
2022-08-21T01:08:07.111Z,21.68
2022-08-21T01:12:09.617Z,21.68
2022-08-21T01:16:11.422Z,21.64
2022-08-21T01:20:13.569Z,21.59
2022-08-21T01:24:15.720Z,21.56
2022-08-21T01:28:17.414Z,21.53
2022-08-21T01:32:21.247Z,21.51
2022-08-21T01:36:24.489Z,21.48
2022-08-21T01:40:26.314Z,21.45
2022-08-21T01:44:28.497Z,21.42
2022-08-21T01:48:30.048Z,21.36
2022-08-21T01:52:31.705Z,21.33
2022-08-21T01:56:39.251Z,21.27
2022-08-21T02:00:40.908Z,21.24
2022-08-21T02:04:42.517Z,21.21
2022-08-21T02:08:47.585Z,21.13
2022-08-21T02:12:50.128Z,21.05
2022-08-21T02:16:51.911Z,20.97
2022-08-21T02:21:07.452Z,20.82
2022-08-21T02:25:09.210Z,20.73
2022-08-21T02:29:10.750Z,20.76
2022-08-21T02:33:13.844Z,20.75
2022-08-21T02:37:15.496Z,20.73
2022-08-21T02:41:21.669Z,20.68
2022-08-21T02:45:23.285Z,20.64
2022-08-21T02:49:24.937Z,20.57
2022-08-21T02:53:27.322Z,20.51
2022-08-21T02:57:28.911Z,20.38
2022-08-21T03:01:30.493Z,20.31
2022-08-21T03:05:33.301Z,20.26
2022-08-21T03:09:34.906Z,20.20
2022-08-21T03:13:36.590Z,20.13
2022-08-21T03:17:38.585Z,20.05
2022-08-21T03:21:40.163Z,20.02
2022-08-21T03:25:42.488Z,19.80
2022-08-21T03:29:44.066Z,19.76
2022-08-21T03:33:45.924Z,19.78
2022-08-21T03:37:47.976Z,19.67
2022-08-21T03:41:49.552Z,19.71
2022-08-21T03:45:51.518Z,19.75
2022-08-21T03:49:55.062Z,19.70
2022-08-21T03:53:56.617Z,19.64
2022-08-21T03:57:58.282Z,19.61
2022-08-21T04:02:02.352Z,19.58
2022-08-21T04:06:04.964Z,19.58
2022-08-21T04:10:08.191Z,19.55
2022-08-21T04:14:10.503Z,19.49
2022-08-21T04:18:12.139Z,19.43
2022-08-21T04:22:13.746Z,19.38
2022-08-21T04:26:15.328Z,19.31
2022-08-21T04:30:17.846Z,19.25
2022-08-21T04:34:19.813Z,19.24
2022-08-21T04:38:21.676Z,19.25
2022-08-21T04:42:23.338Z,19.24
2022-08-21T04:46:25.004Z,19.28
2022-08-21T04:50:32.527Z,19.30
2022-08-21T04:54:40.277Z,19.32
2022-08-21T04:58:42.726Z,19.30
2022-08-21T05:02:44.485Z,19.31
2022-08-21T05:06:48.496Z,19.31
2022-08-21T05:10:50.625Z,19.35
2022-08-21T05:14:52.243Z,19.38
2022-08-21T05:18:54.017Z,19.42
2022-08-21T05:22:56.239Z,19.46
2022-08-21T05:26:58.363Z,19.52
2022-08-21T05:31:00.011Z,19.55
2022-08-21T05:35:01.645Z,19.58
2022-08-21T05:39:03.764Z,19.61
2022-08-21T05:43:05.347Z,19.64
2022-08-21T05:47:09.354Z,19.65
2022-08-21T05:51:13.557Z,19.68
2022-08-21T05:55:15.142Z,19.72
2022-08-21T05:59:19.307Z,19.78
2022-08-21T06:03:24.162Z,19.85
2022-08-21T06:07:25.797Z,19.80
2022-08-21T06:11:29.065Z,19.87
2022-08-21T06:15:31.153Z,19.94
2022-08-21T06:19:32.766Z,19.92
2022-08-21T06:23:35.600Z,19.98
2022-08-21T06:27:37.380Z,20.07
2022-08-21T06:31:40.243Z,20.15
2022-08-21T06:35:42.684Z,20.15
2022-08-21T06:39:45.456Z,20.22
2022-08-21T06:43:47.393Z,20.30
2022-08-21T06:47:49.179Z,20.35
2022-08-21T06:51:51.360Z,20.42
2022-08-21T06:55:53.322Z,20.53
2022-08-21T06:59:55.002Z,20.60
2022-08-21T07:03:56.642Z,20.68
2022-08-21T07:07:59.126Z,20.75
2022-08-21T07:12:01.217Z,20.81
2022-08-21T07:16:04.226Z,20.91
2022-08-21T07:20:07.498Z,20.98
2022-08-21T07:24:09.217Z,21.01
2022-08-21T07:28:11.452Z,21.08
2022-08-21T07:32:13.386Z,21.18
2022-08-21T07:36:15.373Z,21.33
2022-08-21T07:40:18.288Z,21.48
2022-08-21T07:44:20.131Z,21.55
2022-08-21T07:48:22.998Z,21.64
2022-08-21T07:52:24.623Z,21.75
2022-08-21T07:56:33.306Z,21.85
2022-08-21T08:00:35.621Z,21.99
2022-08-21T08:04:37.180Z,22.11
2022-08-21T08:08:52.116Z,22.23
2022-08-21T08:12:55.687Z,22.30
2022-08-21T08:16:57.521Z,22.36
2022-08-21T08:20:59.111Z,22.46
2022-08-21T08:25:01.232Z,22.60
2022-08-21T08:29:02.833Z,22.69
2022-08-21T08:33:04.436Z,22.79
2022-08-21T08:37:07.598Z,22.86
2022-08-21T08:41:14.067Z,23.00
2022-08-21T08:45:20.523Z,23.09
2022-08-21T08:49:56.049Z,23.16
2022-08-21T08:54:05.369Z,23.21
2022-08-21T08:58:07.873Z,23.32
2022-08-21T09:02:12.591Z,23.49
2022-08-21T09:06:29.565Z,23.57
2022-08-21T09:10:43.120Z,23.64
2022-08-21T09:14:56.954Z,23.78
2022-08-21T09:19:26.187Z,23.94
2022-08-21T09:23:55.249Z,24.09
2022-08-21T09:27:56.789Z,24.21
2022-08-21T09:31:58.348Z,24.29
2022-08-21T09:36:00.165Z,24.37
2022-08-21T09:40:18.713Z,24.48
2022-08-21T09:44:28.198Z,24.70
2022-08-21T09:48:32.542Z,24.87
2022-08-21T09:52:35.245Z,25.02
2022-08-21T09:57:38.482Z,25.14
2022-08-21T10:01:51.164Z,25.31
2022-08-21T10:05:54.609Z,25.42
2022-08-21T10:10:08.597Z,25.53
2022-08-21T10:14:21.644Z,25.63
2022-08-21T10:18:35.574Z,25.78
2022-08-21T10:22:54.320Z,25.91
2022-08-21T10:27:08.379Z,26.06
2022-08-21T10:31:28.382Z,26.20
2022-08-21T10:35:34.952Z,26.29
2022-08-21T10:39:41.440Z,26.28
2022-08-21T10:43:51.427Z,26.39
2022-08-21T10:48:00.496Z,26.54
2022-08-21T10:52:14.148Z,26.61
2022-08-21T10:56:20.287Z,26.69
2022-08-21T11:00:27.767Z,26.79
2022-08-21T11:04:53.983Z,26.91
2022-08-21T11:09:00.671Z,26.90
2022-08-21T11:13:08.192Z,26.94
2022-08-21T11:17:21.789Z,27.05
2022-08-21T11:21:38.367Z,27.16
2022-08-21T11:25:48.077Z,27.31
2022-08-21T11:29:54.627Z,27.42
2022-08-21T11:34:37.264Z,27.52
2022-08-21T11:38:45.619Z,27.55
2022-08-21T11:43:11.833Z,27.58
2022-08-21T11:47:40.121Z,27.66
2022-08-21T11:52:14.769Z,27.77
2022-08-21T11:56:22.486Z,27.90
2022-08-21T12:00:30.644Z,27.99
2022-08-21T12:04:35.975Z,28.11
2022-08-21T12:08:41.848Z,28.23
2022-08-21T12:12:46.039Z,28.40
2022-08-21T12:16:50.627Z,28.51
2022-08-21T12:21:00.111Z,28.64
2022-08-21T12:25:09.331Z,28.69
2022-08-21T12:29:38.196Z,28.87
2022-08-21T12:33:41.916Z,29.03
2022-08-21T12:37:50.896Z,29.14
2022-08-21T12:42:01.943Z,29.30
2022-08-21T12:46:05.428Z,29.49
2022-08-21T12:50:12.884Z,29.66
2022-08-21T12:54:37.668Z,29.79
2022-08-21T12:58:45.661Z,29.91
2022-08-21T13:02:50.626Z,30.01
2022-08-21T13:06:55.430Z,30.07
2022-08-21T13:11:13.798Z,30.25
2022-08-21T13:15:26.565Z,30.38
2022-08-21T13:19:35.465Z,30.57
2022-08-21T13:23:37.091Z,30.64
2022-08-21T13:27:39.646Z,30.78
2022-08-21T13:31:43.351Z,31.03
2022-08-21T13:36:05.783Z,31.13
2022-08-21T13:40:11.215Z,31.22
2022-08-21T13:44:35.232Z,31.34
2022-08-21T13:48:37.537Z,31.37
2022-08-21T13:52:48.790Z,31.41
2022-08-21T13:56:51.127Z,31.20
2022-08-21T14:00:54.381Z,31.40
2022-08-21T14:04:59.846Z,31.49
2022-08-21T14:09:13.876Z,31.64
2022-08-21T14:13:35.133Z,31.76
2022-08-21T14:17:42.472Z,31.85
2022-08-21T14:21:44.760Z,31.91
2022-08-21T14:25:46.846Z,32.13
2022-08-21T14:29:48.446Z,32.29
2022-08-21T14:33:51.031Z,32.39
2022-08-21T14:37:54.974Z,32.50
2022-08-21T14:41:58.690Z,32.59
2022-08-21T14:46:01.523Z,32.59
2022-08-21T14:50:03.873Z,32.49
2022-08-21T14:54:06.893Z,32.34
2022-08-21T14:58:08.506Z,32.31
2022-08-21T15:02:10.544Z,32.35
2022-08-21T15:06:12.175Z,32.43
2022-08-21T15:10:13.926Z,32.40
2022-08-21T15:14:24.171Z,32.35
2022-08-21T15:18:27.821Z,32.36
2022-08-21T15:22:29.458Z,32.51
2022-08-21T15:26:31.247Z,32.58
2022-08-21T15:30:33.162Z,32.62
2022-08-21T15:34:34.816Z,32.53
2022-08-21T15:38:36.502Z,32.47
2022-08-21T15:42:40.834Z,32.51
2022-08-21T15:46:42.910Z,32.53
2022-08-21T15:50:44.727Z,32.53
2022-08-21T15:54:46.424Z,32.41
2022-08-21T15:58:48.739Z,32.47
2022-08-21T16:02:56.656Z,32.44
2022-08-21T16:07:04.351Z,32.47
2022-08-21T16:11:09.325Z,32.49
2022-08-21T16:15:16.509Z,32.39
2022-08-21T16:19:22.182Z,32.22
2022-08-21T16:23:23.787Z,32.14
2022-08-21T16:27:27.323Z,32.17
2022-08-21T16:31:29.454Z,32.12
2022-08-21T16:35:31.436Z,31.90
2022-08-21T16:39:33.216Z,31.56
2022-08-21T16:43:35.193Z,31.25
2022-08-21T16:47:36.765Z,30.86
2022-08-21T16:51:38.648Z,30.54
2022-08-21T16:55:40.640Z,30.21
2022-08-21T16:59:42.850Z,30.04
2022-08-21T17:03:51.181Z,29.99
2022-08-21T17:07:52.971Z,29.91
2022-08-21T17:11:54.544Z,29.76
2022-08-21T17:15:56.163Z,29.63
2022-08-21T17:19:57.736Z,29.60
2022-08-21T17:23:59.322Z,29.51
2022-08-21T17:28:01.153Z,29.35
2022-08-21T17:32:05.010Z,29.18
2022-08-21T17:36:08.128Z,29.03
2022-08-21T17:40:14.147Z,28.91
2022-08-21T17:44:18.838Z,28.79
2022-08-21T17:48:20.435Z,28.65
2022-08-21T17:52:27.013Z,28.51
2022-08-21T17:56:32.297Z,28.35
2022-08-21T18:00:34.516Z,28.24
2022-08-21T18:04:36.110Z,28.09
2022-08-21T18:08:37.696Z,27.98
2022-08-21T18:12:41.174Z,27.84
2022-08-21T18:16:42.892Z,27.68
2022-08-21T18:20:44.584Z,27.52
2022-08-21T18:24:46.274Z,27.34
2022-08-21T18:28:48.213Z,27.21
2022-08-21T18:32:52.208Z,27.13
2022-08-21T18:36:55.181Z,27.08
2022-08-21T18:40:57.419Z,27.05
2022-08-21T18:45:02.115Z,27.02
2022-08-21T18:49:03.771Z,26.97
2022-08-21T18:53:13.127Z,26.93
2022-08-21T18:57:30.262Z,26.87
2022-08-21T19:01:33.219Z,26.79
2022-08-21T19:05:34.827Z,26.72
2022-08-21T19:09:38.005Z,26.65
2022-08-21T19:13:39.664Z,26.54
2022-08-21T19:17:42.105Z,26.46
2022-08-21T19:21:44.613Z,26.28
2022-08-21T19:25:51.749Z,26.13
2022-08-21T19:29:53.577Z,26.08
2022-08-21T19:34:01.938Z,25.98
2022-08-21T19:38:03.573Z,25.96
2022-08-21T19:42:08.087Z,25.93
2022-08-21T19:46:15.493Z,25.89
2022-08-21T19:50:21.253Z,25.82
2022-08-21T19:54:29.982Z,25.79
2022-08-21T19:58:38.912Z,25.67
2022-08-21T20:02:48.231Z,25.56
2022-08-21T20:07:00.956Z,25.51
2022-08-21T20:15:25.256Z,25.29
2022-08-21T20:19:26.898Z,25.23
2022-08-21T20:23:34.224Z,25.19
2022-08-21T20:27:40.305Z,25.17
2022-08-21T20:31:42.652Z,25.08
2022-08-21T20:35:48.430Z,25.05
2022-08-21T20:39:50.050Z,25.04
2022-08-21T20:43:51.941Z,24.93
2022-08-21T20:48:11.374Z,24.84
2022-08-21T20:52:15.822Z,24.79
2022-08-21T20:56:55.675Z,24.74
2022-08-21T21:01:03.095Z,24.70
2022-08-21T21:05:22.544Z,24.66
2022-08-21T21:09:41.957Z,24.60
2022-08-21T21:13:49.165Z,24.44
2022-08-21T21:18:01.132Z,24.30
2022-08-21T21:22:41.759Z,24.19
2022-08-21T21:26:48.707Z,24.04
2022-08-21T21:30:51.933Z,24.04
2022-08-21T21:35:00.269Z,24.04
2022-08-21T21:39:26.939Z,24.00
2022-08-21T21:44:05.308Z,23.94
2022-08-21T21:48:21.253Z,23.94
2022-08-21T21:52:54.667Z,23.93
2022-08-21T21:57:21.529Z,23.75
2022-08-21T22:01:43.644Z,23.68
2022-08-21T22:06:23.054Z,23.71
2022-08-21T22:10:34.024Z,23.72
2022-08-21T22:14:46.648Z,23.72
2022-08-21T22:18:55.063Z,23.68
2022-08-21T22:22:57.968Z,23.63
2022-08-21T22:27:06.597Z,23.60
2022-08-21T22:31:24.478Z,23.60
2022-08-21T22:35:33.252Z,23.53
2022-08-21T22:39:39.453Z,23.53
2022-08-21T22:44:03.642Z,23.52
2022-08-21T22:48:22.410Z,23.39
2022-08-21T22:52:48.491Z,23.37
2022-08-21T22:57:02.857Z,23.23
2022-08-21T23:01:23.467Z,23.16
2022-08-21T23:05:34.452Z,23.04
2022-08-21T23:09:47.574Z,22.97
2022-08-21T23:13:53.587Z,22.84
2022-08-21T23:18:03.125Z,22.85
2022-08-21T23:22:28.388Z,22.85
2022-08-21T23:26:46.731Z,22.89
2022-08-21T23:31:09.919Z,22.88
2022-08-21T23:35:48.275Z,22.89
2022-08-21T23:40:21.373Z,22.93
2022-08-21T23:44:57.203Z,22.79
2022-08-21T23:49:37.676Z,22.85
2022-08-21T23:53:55.680Z,22.91
2022-08-21T23:58:28.101Z,22.91
